Time;durP1;ratioP1;P1;durP2;ratioP2;P2;SDS_P1;SDS_P2;PMS_P1;PMS_P2;Temp;Humidity;BMP_temperature;BMP_pressure;BME280_temperature;BME280_humidity;BME280_pressure;Samples;Min_cycle;Max_cycle;Signal;HPM_P1;HPM_P2
2023/10/14 00:02:08;;;;;;;;;8.00;8.00;;;;;21.47;100.00;98237.56;6258603;27;97492;-59
2023/10/14 00:05:12;;;;;;;;;7.20;7.20;;;;;21.37;100.00;98234.25;6239821;27;97639;-59
2023/10/14 00:08:15;;;;;;;;;8.40;7.40;;;;;21.30;100.00;98220.16;6245889;27;96363;-58
2023/10/14 00:11:21;;;;;;;;;6.00;6.00;;;;;21.25;100.00;98207.38;6262492;27;97004;-59
2023/10/14 00:14:25;;;;;;;;;8.00;7.00;;;;;21.14;100.00;98192.25;6247155;27;98578;-59
2023/10/14 00:17:35;;;;;;;;;9.00;8.00;;;;;21.18;100.00;98174.88;6251295;27;97368;-60
2023/10/14 00:20:38;;;;;;;;;7.00;6.00;;;;;21.34;100.00;98197.28;6233919;27;98502;-59
2023/10/14 00:23:41;;;;;;;;;7.80;7.00;;;;;21.47;100.00;98196.44;6258022;27;96261;-59
2023/10/14 00:26:48;;;;;;;;;7.00;6.80;;;;;21.56;100.00;98194.59;6270101;27;96302;-60
2023/10/14 00:30:05;;;;;;;;;5.75;4.75;;;;;21.64;100.00;98186.75;6239241;28;96556;-58
2023/10/14 00:33:11;;;;;;;;;7.00;7.00;;;;;21.74;100.00;98190.06;6218886;27;96662;-59
2023/10/14 00:36:16;;;;;;;;;9.75;7.00;;;;;21.85;100.00;98188.69;6250250;27;96522;-59
2023/10/14 00:39:26;;;;;;;;;5.60;5.00;;;;;21.94;100.00;98189.56;6247272;27;96808;-59
2023/10/14 00:42:31;;;;;;;;;5.00;4.00;;;;;22.05;100.00;98181.91;6237353;27;96332;-59
2023/10/14 00:45:42;;;;;;;;;7.00;7.00;;;;;22.11;100.00;98174.34;6234897;27;96684;-60
2023/10/14 00:48:47;;;;;;;;;7.20;6.80;;;;;22.17;100.00;98168.41;6231621;27;96649;-60
2023/10/14 00:51:57;;;;;;;;;5.50;4.50;;;;;22.16;100.00;98166.78;6232974;27;96529;-60
2023/10/14 00:55:12;;;;;;;;;4.00;3.75;;;;;22.22;100.00;98159.25;6236920;27;96443;-62
2023/10/14 00:58:22;;;;;;;;;4.25;4.25;;;;;22.28;100.00;98163.47;6246325;27;97505;-63
2023/10/14 01:01:32;;;;;;;;;6.00;6.00;;;;;22.28;100.00;98153.31;6240834;27;96995;-61
2023/10/14 01:04:35;;;;;;;;;8.00;6.00;;;;;22.24;100.00;98152.28;6231388;22;96325;-67
2023/10/14 01:07:39;;;;;;;;;6.00;6.00;;;;;22.21;100.00;98147.44;6218436;28;96319;-68
2023/10/14 01:10:42;;;;;;;;;9.20;8.20;;;;;22.18;100.00;98142.59;6219389;28;96450;-68
2023/10/14 01:13:47;;;;;;;;;7.50;7.50;;;;;22.16;100.00;98138.53;6210757;28;96670;-68
2023/10/14 01:16:51;;;;;;;;;8.80;8.00;;;;;22.17;100.00;98126.44;6175711;28;96516;-68
2023/10/14 01:19:55;;;;;;;;;10.60;10.00;;;;;22.14;100.00;98127.06;6215125;28;96580;-67
2023/10/14 01:23:06;;;;;;;;;9.00;8.00;;;;;22.10;100.00;98117.81;6222435;28;97426;-68
2023/10/14 01:26:10;;;;;;;;;7.20;6.20;;;;;22.05;100.00;98107.78;6215544;28;96751;-68
2023/10/14 01:29:15;;;;;;;;;11.00;9.00;;;;;22.01;100.00;98101.31;6205847;28;96419;-68
2023/10/14 01:32:42;;;;;;;;;9.40;9.00;;;;;21.98;100.00;98089.03;6208264;28;96478;-68
2023/10/14 01:35:51;;;;;;;;;10.40;8.40;;;;;21.99;100.00;98084.38;6199111;28;97313;-68
2023/10/14 01:38:59;;;;;;;;;13.40;12.00;;;;;21.99;100.00;98079.66;6211176;28;96722;-67
2023/10/14 01:42:08;;;;;;;;;7.00;6.75;;;;;21.95;100.00;98075.13;6211833;28;96264;-68
2023/10/14 01:45:11;;;;;;;;;7.00;5.00;;;;;21.91;100.00;98076.84;6200007;28;97911;-68
2023/10/14 01:48:21;;;;;;;;;8.00;8.00;;;;;21.84;100.00;98068.28;6215047;28;96357;-68
2023/10/14 01:51:25;;;;;;;;;6.00;6.00;;;;;21.75;100.00;98062.72;6214316;28;96312;-67
2023/10/14 01:54:31;;;;;;;;;6.75;6.75;;;;;21.75;100.00;98051.75;6156362;28;97285;-68
2023/10/14 01:57:36;;;;;;;;;7.00;6.00;;;;;21.74;100.00;98046.59;6203150;28;98523;-68
2023/10/14 02:00:39;;;;;;;;;8.20;7.60;;;;;21.72;100.00;98041.41;6198268;28;96774;-68
2023/10/14 02:03:46;;;;;;;;;6.00;6.00;;;;;21.67;100.00;98029.75;6192330;28;96629;-68
2023/10/14 02:07:03;;;;;;;;;7.00;6.20;;;;;21.70;100.00;98029.16;6193843;28;96362;-68
2023/10/14 02:10:12;;;;;;;;;7.40;6.60;;;;;21.72;100.00;98032.38;6213509;28;96602;-68
2023/10/14 02:13:16;;;;;;;;;8.00;7.00;;;;;21.73;100.00;98031.25;6170965;28;98493;-68
2023/10/14 02:16:24;;;;;;;;;7.25;7.00;;;;;21.68;100.00;98029.44;6220071;28;96427;-60
2023/10/14 02:19:37;;;;;;;;;8.00;8.00;;;;;21.66;100.00;98023.47;6220272;27;96408;-60
2023/10/14 02:22:40;;;;;;;;;5.00;5.00;;;;;21.56;100.00;98004.53;6206913;28;96679;-60
2023/10/14 02:25:45;;;;;;;;;6.00;5.00;;;;;21.60;100.00;98019.22;6204157;28;96404;-61
2023/10/14 02:28:48;;;;;;;;;6.00;5.00;;;;;21.46;100.00;98010.28;6200678;28;96704;-60
2023/10/14 02:31:53;;;;;;;;;7.80;7.00;;;;;21.25;100.00;98009.19;6197570;28;96530;-60
2023/10/14 02:34:56;;;;;;;;;6.00;6.00;;;;;21.12;100.00;98008.88;6170631;28;98260;-63
2023/10/14 02:38:00;;;;;;;;;4.00;4.00;;;;;21.08;100.00;98001.59;6209063;28;96459;-60
2023/10/14 02:41:05;;;;;;;;;6.00;6.00;;;;;21.07;100.00;97989.81;6193555;28;96913;-61
2023/10/14 02:44:20;;;;;;;;;5.00;5.00;;;;;21.04;100.00;97995.94;6199438;28;96586;-61
2023/10/14 02:47:37;;;;;;;;;5.60;5.20;;;;;21.11;100.00;97995.50;6194399;28;96740;-61
2023/10/14 02:50:50;;;;;;;;;7.00;7.00;;;;;21.09;100.00;97995.00;6183276;28;96689;-61
2023/10/14 02:53:55;;;;;;;;;6.60;6.00;;;;;21.10;100.00;97989.22;6201856;28;96648;-61
2023/10/14 02:57:12;;;;;;;;;5.50;5.00;;;;;21.19;100.00;97989.31;6208657;28;97100;-60
2023/10/14 03:00:20;;;;;;;;;11.00;9.00;;;;;21.33;100.00;97994.72;6205919;28;97586;-61
2023/10/14 03:03:23;;;;;;;;;8.00;7.00;;;;;21.44;100.00;97991.41;6223499;28;96555;-61
2023/10/14 03:06:30;;;;;;;;;6.00;5.00;;;;;21.52;100.00;97976.91;6194314;28;96637;-62
2023/10/14 03:09:34;;;;;;;;;6.25;5.75;;;;;21.59;100.00;97973.75;6196828;28;97493;-60
2023/10/14 03:12:39;;;;;;;;;7.40;6.00;;;;;21.59;100.00;97971.81;6202961;28;96477;-60
2023/10/14 03:15:44;;;;;;;;;7.00;6.25;;;;;21.60;100.00;97969.84;6192698;28;96546;-60
2023/10/14 03:18:48;;;;;;;;;7.50;7.50;;;;;21.63;100.00;97969.22;6194291;28;96899;-61
2023/10/14 03:21:58;;;;;;;;;5.60;5.40;;;;;21.67;100.00;97959.25;6217506;28;96535;-60
2023/10/14 03:25:07;;;;;;;;;7.00;7.00;;;;;21.69;100.00;97947.97;6212478;28;98450;-60
2023/10/14 03:28:14;;;;;;;;;7.00;7.00;;;;;21.69;100.00;97943.28;6212203;28;96343;-68
2023/10/14 03:31:22;;;;;;;;;4.00;4.00;;;;;21.68;100.00;97940.84;6207799;28;98189;-67
2023/10/14 03:34:30;;;;;;;;;4.00;4.00;;;;;21.69;100.00;97943.28;6176995;28;96467;-68
2023/10/14 03:37:36;;;;;;;;;8.00;8.00;;;;;21.66;100.00;97938.41;6195253;28;97467;-67
2023/10/14 03:40:54;;;;;;;;;7.40;7.00;;;;;21.68;100.00;97924.41;6197641;28;96670;-67
2023/10/14 03:44:05;;;;;;;;;8.75;8.75;;;;;21.70;100.00;97925.69;6215008;28;96784;-67
2023/10/14 03:47:14;;;;;;;;;4.67;4.67;;;;;21.72;100.00;97919.88;6191662;28;96689;-67
2023/10/14 03:50:23;;;;;;;;;7.40;7.40;;;;;21.54;100.00;97922.56;6219404;28;96309;-68
2023/10/14 03:53:26;;;;;;;;;7.00;6.40;;;;;21.30;100.00;97913.91;6221704;28;96705;-66
2023/10/14 03:56:31;;;;;;;;;7.00;6.00;;;;;21.09;100.00;97907.31;6206179;28;96695;-68
2023/10/14 03:59:36;;;;;;;;;8.50;7.50;;;;;20.90;100.00;97909.44;6198734;28;96657;-68
2023/10/14 04:02:41;;;;;;;;;10.00;10.00;;;;;20.61;100.00;97913.44;6205156;28;97010;-68
2023/10/14 04:05:52;;;;;;;;;6.00;5.50;;;;;20.26;100.00;97917.78;6218008;28;96411;-68
2023/10/14 04:08:55;;;;;;;;;10.20;8.40;;;;;20.02;100.00;97917.22;6213291;28;96335;-68
2023/10/14 04:12:00;;;;;;;;;8.00;7.00;;;;;19.84;100.00;97916.19;6187048;28;96729;-68
2023/10/14 04:15:23;;;;;;;;;8.40;8.00;;;;;19.56;100.00;97913.78;6194364;28;96523;-68
2023/10/14 04:18:27;;;;;;;;;8.40;8.00;;;;;19.26;100.00;97926.06;6202030;28;96286;-68
2023/10/14 04:21:37;;;;;;;;;8.00;8.00;;;;;19.00;100.00;97915.59;6204131;28;96367;-68
2023/10/14 04:24:46;;;;;;;;;10.00;9.00;;;;;18.82;100.00;97916.44;6211969;28;96988;-68
2023/10/14 04:28:17;;;;;;;;;12.00;11.00;;;;;18.62;100.00;97905.06;6178652;28;96943;-66
2023/10/14 04:31:38;;;;;;;;;13.25;13.00;;;;;18.63;100.00;97912.13;6221562;28;96276;-68
2023/10/14 04:34:44;;;;;;;;;9.40;9.00;;;;;18.61;100.00;97912.44;6188200;28;96351;-68
2023/10/14 04:37:52;;;;;;;;;8.40;7.60;;;;;18.58;100.00;97913.00;6198486;28;96410;-68
2023/10/14 04:40:58;;;;;;;;;9.40;9.00;;;;;18.55;100.00;97906.25;6211096;28;96593;-68
2023/10/14 04:44:04;;;;;;;;;9.00;8.40;;;;;18.55;100.00;97910.88;6211521;28;97043;-69
2023/10/14 04:47:18;;;;;;;;;8.75;8.75;;;;;18.54;100.00;97909.25;6192838;28;96679;-68
2023/10/14 04:50:23;;;;;;;;;9.00;8.00;;;;;18.47;100.00;97909.59;6213767;28;96611;-67
2023/10/14 04:53:26;;;;;;;;;10.75;8.75;;;;;18.44;100.00;97909.38;6210635;28;96564;-67
2023/10/14 04:56:30;;;;;;;;;9.40;7.40;;;;;18.43;100.00;97897.66;6198176;28;99196;-67
2023/10/14 04:59:35;;;;;;;;;10.00;9.80;;;;;18.48;100.00;97903.03;6208684;28;96455;-68
2023/10/14 05:02:41;;;;;;;;;10.00;9.00;;;;;18.47;100.00;97900.63;6197526;28;97092;-68
2023/10/14 05:05:48;;;;;;;;;11.40;11.40;;;;;18.47;100.00;97900.63;6191578;28;96483;-68
2023/10/14 05:08:54;;;;;;;;;14.00;12.00;;;;;18.42;100.00;97906.94;6186805;28;97043;-69
2023/10/14 05:11:58;;;;;;;;;13.00;11.25;;;;;18.39;100.00;97910.28;6201513;28;96273;-68
2023/10/14 05:15:11;;;;;;;;;9.00;9.00;;;;;18.34;100.00;97910.34;6223300;28;96454;-69
2023/10/14 05:18:16;;;;;;;;;10.00;9.00;;;;;18.34;100.00;97920.44;6221282;28;96689;-69
2023/10/14 05:21:35;;;;;;;;;10.00;8.25;;;;;18.39;100.00;97921.19;6226772;28;97260;-65
2023/10/14 05:24:39;;;;;;;;;8.50;8.00;;;;;18.49;100.00;97920.22;6195628;28;97696;-69
2023/10/14 05:27:54;;;;;;;;;9.00;8.80;;;;;18.60;100.00;97919.00;6214036;28;96534;-68
2023/10/14 05:31:00;;;;;;;;;9.00;7.80;;;;;18.67;100.00;97922.16;6197616;28;96960;-68
2023/10/14 05:34:05;;;;;;;;;8.80;8.20;;;;;18.66;100.00;97919.72;6196498;28;96584;-68
2023/10/14 05:37:11;;;;;;;;;8.00;7.00;;;;;18.71;100.00;97923.19;6190506;28;96509;-69
2023/10/14 05:40:15;;;;;;;;;10.25;9.00;;;;;18.84;100.00;97929.81;6196342;28;96876;-68
2023/10/14 05:43:21;;;;;;;;;11.00;10.40;;;;;18.95;100.00;97918.44;6202632;28;96359;-69
2023/10/14 05:46:25;;;;;;;;;10.80;9.80;;;;;19.11;100.00;97924.41;6176878;28;98395;-69
2023/10/14 05:49:29;;;;;;;;;11.00;9.75;;;;;19.29;100.00;97920.81;6199102;28;97123;-69
2023/10/14 05:52:33;;;;;;;;;11.00;9.00;;;;;19.54;100.00;97924.22;6213394;28;97055;-69
2023/10/14 05:55:39;;;;;;;;;8.00;7.25;;;;;19.74;100.00;97935.53;6197271;28;96394;-69
2023/10/14 05:58:45;;;;;;;;;10.00;10.00;;;;;19.75;100.00;97933.63;6213902;28;96488;-69
2023/10/14 06:01:48;;;;;;;;;10.50;9.00;;;;;20.00;100.00;97935.03;6215205;28;96893;-69
2023/10/14 06:04:53;;;;;;;;;11.00;9.00;;;;;20.26;100.00;97927.91;6195656;28;97028;-69
2023/10/14 06:08:05;;;;;;;;;10.00;10.00;;;;;20.77;100.00;97934.97;6179526;28;96931;-68
2023/10/14 06:11:10;;;;;;;;;9.00;8.00;;;;;21.31;100.00;97937.44;6214242;28;96657;-69
2023/10/14 06:14:13;;;;;;;;;9.20;8.40;;;;;22.04;100.00;97945.03;6211206;28;96516;-69
2023/10/14 06:17:16;;;;;;;;;7.20;6.60;;;;;22.86;100.00;97946.13;6215124;28;96385;-69
2023/10/14 06:20:20;;;;;;;;;9.00;8.40;;;;;23.86;100.00;97945.72;6196634;28;96865;-69
2023/10/14 06:23:26;;;;;;;;;10.60;10.60;;;;;25.11;100.00;97955.78;6203102;28;96494;-69
2023/10/14 06:26:29;;;;;;;;;29.60;27.60;;;;;27.17;100.00;97969.59;6171540;28;99008;-68
2023/10/14 06:29:32;;;;;;;;;21.00;17.60;;;;;29.86;89.19;97958.41;6189152;28;96404;-69
2023/10/14 06:32:36;;;;;;;;;12.00;11.40;;;;;32.43;80.53;97964.84;6194926;28;97082;-69
2023/10/14 06:35:43;;;;;;;;;8.00;7.60;;;;;34.09;80.71;97961.94;6193478;28;96605;-68
2023/10/14 06:38:46;;;;;;;;;11.00;9.00;;;;;35.41;73.81;97971.69;6216243;28;96497;-69
2023/10/14 06:41:50;;;;;;;;;8.50;7.50;;;;;36.45;68.00;97961.34;6189546;28;96795;-68
2023/10/14 06:44:54;;;;;;;;;11.00;10.00;;;;;37.33;60.77;97958.81;6204074;28;96530;-68
2023/10/14 06:47:58;;;;;;;;;9.00;9.00;;;;;38.38;51.22;97950.78;6224207;28;96282;-69
2023/10/14 06:51:02;;;;;;;;;10.00;7.40;;;;;39.37;43.07;97948.91;6226304;28;96392;-68
2023/10/14 06:54:09;;;;;;;;;7.60;7.40;;;;;40.46;39.20;97946.72;6222653;28;97055;-68
2023/10/14 06:57:14;;;;;;;;;6.00;5.20;;;;;41.35;35.47;97956.38;6225885;28;96841;-63
2023/10/14 07:00:25;;;;;;;;;8.00;6.75;;;;;42.26;35.19;97949.06;6225440;28;96387;-63
2023/10/14 07:03:29;;;;;;;;;5.40;5.40;;;;;42.65;32.02;97961.91;6203409;28;98997;-63
2023/10/14 07:06:34;;;;;;;;;6.00;5.00;;;;;43.31;30.80;97957.09;6223319;27;96712;-63
2023/10/14 07:09:37;;;;;;;;;7.60;6.60;;;;;43.97;29.51;97938.72;6223506;28;96480;-62
2023/10/14 07:12:41;;;;;;;;;6.00;6.00;;;;;44.52;29.56;97933.16;6189415;28;99381;-64
2023/10/14 07:15:45;;;;;;;;;7.00;6.80;;;;;45.03;28.13;97934.16;6221022;28;96577;-64
2023/10/14 07:18:48;;;;;;;;;6.00;5.00;;;;;45.35;26.14;97955.44;6224206;28;96560;-64
2023/10/14 07:21:53;;;;;;;;;7.00;6.00;;;;;46.07;24.91;97959.34;6220364;28;96655;-63
2023/10/14 07:24:56;;;;;;;;;6.75;6.00;;;;;46.63;23.51;97958.53;6194164;28;96870;-64
2023/10/14 07:27:59;;;;;;;;;6.00;6.00;;;;;46.99;22.79;97948.91;6189033;28;97426;-64
2023/10/14 07:31:03;;;;;;;;;7.00;6.67;;;;;47.21;24.15;97931.44;6189020;28;96760;-65
2023/10/14 07:34:09;;;;;;;;;6.00;5.25;;;;;47.18;23.84;97930.34;6160782;28;98526;-64
2023/10/14 07:37:14;;;;;;;;;7.00;6.00;;;;;47.48;23.71;97927.50;6213988;28;96611;-64
2023/10/14 07:40:24;;;;;;;;;6.40;5.00;;;;;47.75;21.78;97919.41;6195993;28;96814;-64
2023/10/14 07:43:28;;;;;;;;;7.00;7.00;;;;;48.19;22.41;97933.59;6212193;28;96755;-64
2023/10/14 07:46:31;;;;;;;;;6.00;6.00;;;;;48.42;21.71;97942.53;6188751;28;96400;-65
2023/10/14 07:49:35;;;;;;;;;7.00;6.00;;;;;48.50;19.93;97947.31;6188670;28;96385;-64
2023/10/14 07:52:39;;;;;;;;;8.00;7.00;;;;;49.02;21.99;97945.31;6187936;28;96682;-65
2023/10/14 07:55:44;;;;;;;;;8.40;7.40;;;;;49.23;20.61;97937.50;6205876;28;96287;-65
2023/10/14 07:58:47;;;;;;;;;7.00;6.50;;;;;49.46;19.73;97942.16;6195334;28;97616;-64
2023/10/14 08:01:51;;;;;;;;;6.40;5.40;;;;;49.96;19.89;97949.63;6211315;28;97133;-65
2023/10/14 08:04:54;;;;;;;;;6.00;5.80;;;;;50.28;19.64;97937.63;6202661;28;96276;-65
2023/10/14 08:08:05;;;;;;;;;5.75;5.75;;;;;50.54;19.04;97943.22;6212041;28;96764;-65
2023/10/14 08:11:12;;;;;;;;;7.00;7.00;;;;;50.62;19.72;97927.09;6194118;28;97176;-65
2023/10/14 08:14:15;;;;;;;;;5.00;5.00;;;;;50.92;19.26;97927.47;6206802;28;96837;-65
2023/10/14 08:17:19;;;;;;;;;5.00;5.00;;;;;51.26;19.42;97922.59;6169987;28;96257;-65
2023/10/14 08:20:22;;;;;;;;;6.00;5.33;;;;;51.19;17.81;97919.44;6192433;28;97517;-65
2023/10/14 08:23:28;;;;;;;;;7.00;6.00;;;;;51.48;17.90;97911.13;6216751;28;96343;-65
2023/10/14 08:26:31;;;;;;;;;6.00;6.00;;;;;51.47;16.86;97920.28;6190247;28;96301;-65
2023/10/14 08:29:34;;;;;;;;;6.25;6.00;;;;;51.74;17.36;97918.69;6173581;28;98543;-65
2023/10/14 08:32:39;;;;;;;;;6.00;5.80;;;;;51.66;17.07;97923.44;6173590;28;97027;-65
2023/10/14 08:35:42;;;;;;;;;6.00;6.00;;;;;51.49;16.69;97909.06;6189387;28;98402;-66
2023/10/14 08:38:47;;;;;;;;;6.00;6.00;;;;;51.55;16.78;97904.09;6216432;28;96193;-65
2023/10/14 08:41:56;;;;;;;;;5.00;5.00;;;;;51.40;16.24;97907.22;6203411;28;96394;-65
2023/10/14 08:45:01;;;;;;;;;7.00;6.60;;;;;50.77;16.15;97906.84;6193272;28;96406;-65
2023/10/14 08:48:05;;;;;;;;;4.40;4.00;;;;;50.68;15.60;97919.28;6179648;28;98562;-66
2023/10/14 08:51:11;;;;;;;;;5.00;5.00;;;;;51.27;16.17;97934.88;6193620;28;99024;-65
2023/10/14 08:54:18;;;;;;;;;8.20;7.00;;;;;51.29;16.16;97932.25;6195277;28;96411;-65
2023/10/14 08:57:23;;;;;;;;;5.00;4.80;;;;;51.29;15.86;97920.78;6211655;28;96394;-66
2023/10/14 09:00:26;;;;;;;;;5.00;5.00;;;;;51.04;16.00;97925.41;6210631;28;96432;-65
2023/10/14 09:03:30;;;;;;;;;6.00;5.60;;;;;50.53;16.28;97927.34;6169916;28;96319;-65
2023/10/14 09:06:34;;;;;;;;;7.40;7.00;;;;;50.69;17.50;97928.66;6189435;28;96596;-65
2023/10/14 09:09:38;;;;;;;;;5.00;5.00;;;;;50.66;16.39;97923.97;6172676;28;96796;-65
2023/10/14 09:12:53;;;;;;;;;7.00;7.00;;;;;50.21;17.02;97914.34;6199621;28;96395;-65
2023/10/14 09:15:57;;;;;;;;;8.00;7.00;;;;;50.12;17.28;97929.69;6194108;28;96421;-66
2023/10/14 09:19:02;;;;;;;;;6.00;6.00;;;;;49.98;17.69;97916.28;6203482;28;96683;-65
2023/10/14 09:22:08;;;;;;;;;7.40;6.00;;;;;49.95;17.44;97922.28;6214541;28;96502;-65
2023/10/14 09:25:14;;;;;;;;;6.00;6.00;;;;;50.15;17.64;97927.88;6214148;28;96390;-66
2023/10/14 09:28:20;;;;;;;;;6.00;6.00;;;;;50.53;17.21;97929.41;6215705;28;96252;-65
2023/10/14 09:31:29;;;;;;;;;6.00;5.20;;;;;50.16;16.88;97927.38;6207953;28;96338;-65
2023/10/14 09:34:32;;;;;;;;;8.00;8.00;;;;;50.38;17.34;97917.31;6171587;28;96834;-66
2023/10/14 09:37:38;;;;;;;;;7.00;7.00;;;;;49.35;17.29;97922.03;6214040;28;96758;-65
2023/10/14 09:40:43;;;;;;;;;6.50;6.00;;;;;49.31;17.86;97915.75;6196521;28;96688;-65
2023/10/14 09:43:50;;;;;;;;;7.75;6.00;;;;;49.06;18.19;97907.16;6164096;28;98358;-65
2023/10/14 09:46:55;;;;;;;;;6.00;6.00;;;;;49.38;18.43;97911.63;6190907;28;96256;-65
2023/10/14 09:49:58;;;;;;;;;9.00;7.00;;;;;48.99;18.88;97900.56;6177845;28;96380;-65
2023/10/14 09:53:03;;;;;;;;;7.00;6.40;;;;;49.02;18.80;97925.28;6192995;28;96652;-65
2023/10/14 09:56:09;;;;;;;;;7.00;6.00;;;;;48.40;19.39;97899.31;6213157;28;96761;-65
2023/10/14 09:59:14;;;;;;;;;9.00;8.40;;;;;48.38;19.29;97899.06;6206011;28;97735;-65
2023/10/14 10:02:19;;;;;;;;;7.00;7.00;;;;;48.22;19.26;97906.88;6203770;28;96392;-65
2023/10/14 10:05:28;;;;;;;;;7.00;7.00;;;;;47.96;19.51;97896.59;6194018;28;96415;-65
2023/10/14 10:08:55;;;;;;;;;9.00;8.00;;;;;48.09;19.74;97897.84;6222676;28;96584;-65
2023/10/14 10:12:01;;;;;;;;;8.60;8.00;;;;;47.75;19.75;97872.94;6209638;28;96673;-65
2023/10/14 10:15:07;;;;;;;;;8.40;8.00;;;;;47.54;20.66;97874.13;6192508;28;96736;-65
2023/10/14 10:18:12;;;;;;;;;8.00;8.00;;;;;47.33;21.39;97874.06;6196966;28;96303;-65
2023/10/14 10:21:18;;;;;;;;;9.00;8.00;;;;;47.65;21.93;97871.50;6201565;28;96851;-65
2023/10/14 10:24:25;;;;;;;;;8.00;7.00;;;;;47.60;21.32;97872.94;6195445;28;96822;-65
2023/10/14 10:27:29;;;;;;;;;8.00;8.00;;;;;47.37;21.49;97871.00;6210852;28;96270;-69
2023/10/14 10:30:46;;;;;;;;;7.00;7.00;;;;;47.51;21.47;97857.97;6189565;28;96388;-69
2023/10/14 10:33:58;;;;;;;;;7.00;7.00;;;;;47.09;21.34;97861.94;6193932;28;96638;-69
2023/10/14 10:37:03;;;;;;;;;8.00;8.00;;;;;47.24;21.75;97850.53;6184130;28;96674;-69
2023/10/14 10:40:10;;;;;;;;;9.40;9.00;;;;;46.38;22.02;97850.72;6176632;28;99915;-70
2023/10/14 10:43:17;;;;;;;;;8.00;7.00;;;;;45.77;21.81;97844.41;6178867;28;99614;-69
2023/10/14 10:46:40;;;;;;;;;8.00;7.00;;;;;45.57;23.83;97847.84;6197789;28;96473;-69
2023/10/14 10:49:54;;;;;;;;;8.00;8.00;;;;;45.56;24.06;97851.94;6201118;28;96270;-69
2023/10/14 10:53:32;;;;;;;;;8.25;7.25;;;;;45.57;24.16;97847.06;6178988;28;97413;-69
2023/10/14 10:56:35;;;;;;;;;8.40;7.40;;;;;45.49;24.15;97843.78;6098078;28;96806;-69
2023/10/14 10:59:40;;;;;;;;;8.00;7.00;;;;;45.14;24.92;97836.94;6103506;28;96731;-69
2023/10/14 11:02:44;;;;;;;;;8.50;7.50;;;;;45.20;24.17;97835.03;6103294;28;97058;-69
2023/10/14 11:05:48;;;;;;;;;8.00;7.00;;;;;44.91;25.62;97835.56;6077329;28;96872;-69
2023/10/14 11:08:52;;;;;;;;;8.00;8.00;;;;;44.62;26.47;97838.88;6081542;28;98754;-69
2023/10/14 11:12:00;;;;;;;;;7.20;7.20;;;;;44.37;27.25;97834.31;6081436;28;96762;-69
2023/10/14 11:15:18;;;;;;;;;7.00;7.00;;;;;44.13;27.38;97819.13;6083644;28;96623;-69
2023/10/14 11:18:21;;;;;;;;;9.00;8.00;;;;;43.92;26.45;97825.72;6081554;28;96701;-70
2023/10/14 11:21:41;;;;;;;;;9.00;8.00;;;;;43.09;28.71;97835.97;6079644;28;97840;-69
2023/10/14 11:24:44;;;;;;;;;8.00;8.00;;;;;42.21;29.89;97813.69;6083183;28;98442;-69
2023/10/14 11:27:48;;;;;;;;;8.00;7.00;;;;;42.66;29.29;97814.06;6147572;28;96953;-69
2023/10/14 11:30:55;;;;;;;;;7.00;7.00;;;;;42.58;31.41;97798.56;6199421;28;97422;-69
2023/10/14 11:34:01;;;;;;;;;8.00;8.00;;;;;42.47;31.14;97806.66;6178520;28;98352;-69
2023/10/14 11:37:09;;;;;;;;;11.00;11.00;;;;;42.61;31.26;97808.22;6165343;28;97631;-64
2023/10/14 11:40:13;;;;;;;;;8.75;8.75;;;;;42.71;31.03;97813.50;6182912;28;99210;-64
2023/10/14 11:43:21;;;;;;;;;9.50;8.50;;;;;42.76;31.77;97810.03;6162994;28;96597;-64
2023/10/14 11:46:28;;;;;;;;;7.80;7.80;;;;;42.69;31.20;97824.50;6181605;28;96319;-64
2023/10/14 11:49:32;;;;;;;;;8.50;8.00;;;;;42.00;32.06;97805.94;6195187;28;96696;-64
2023/10/14 11:52:37;;;;;;;;;8.20;7.20;;;;;41.88;31.83;97816.84;6175003;28;97128;-63
2023/10/14 11:55:40;;;;;;;;;8.00;7.40;;;;;42.05;32.16;97811.03;6137353;28;96936;-64
2023/10/14 11:58:45;;;;;;;;;8.75;8.25;;;;;42.15;31.53;97810.66;6129536;28;96654;-64
2023/10/14 12:01:49;;;;;;;;;10.00;10.00;;;;;40.89;34.99;97799.41;6177692;28;96433;-64
2023/10/14 12:04:54;;;;;;;;;11.00;10.00;;;;;39.63;37.56;97810.91;6195591;28;96208;-64
2023/10/14 12:07:57;;;;;;;;;9.00;9.00;;;;;38.00;45.33;97811.53;6195769;28;98515;-64
2023/10/14 12:11:03;;;;;;;;;9.00;9.00;;;;;36.69;52.52;97803.06;6212284;28;97134;-63
2023/10/14 12:14:07;;;;;;;;;12.00;12.00;;;;;35.90;59.32;97804.31;6203244;28;96499;-62
2023/10/14 12:17:12;;;;;;;;;11.40;10.40;;;;;35.17;63.32;97808.09;6212830;28;96339;-62
2023/10/14 12:20:15;;;;;;;;;11.60;11.00;;;;;34.38;68.85;97797.63;6218153;28;96367;-63
2023/10/14 12:23:20;;;;;;;;;10.00;10.00;;;;;34.05;71.35;97795.31;6216184;28;96674;-62
2023/10/14 12:26:27;;;;;;;;;12.00;12.00;;;;;33.78;74.59;97792.16;6198487;28;97007;-62
2023/10/14 12:29:41;;;;;;;;;12.00;11.00;;;;;33.23;76.51;97803.75;6223182;28;96419;-62
2023/10/14 12:32:46;;;;;;;;;10.80;9.20;;;;;32.73;79.95;97808.38;6226150;28;96478;-62
2023/10/14 12:35:51;;;;;;;;;12.00;11.00;;;;;32.37;82.13;97804.59;6194814;28;96480;-62
2023/10/14 12:38:54;;;;;;;;;11.40;10.40;;;;;31.96;84.01;97800.38;6208020;28;96297;-62
2023/10/14 12:42:03;;;;;;;;;14.40;13.00;;;;;31.85;85.47;97799.50;6208831;28;96970;-62
2023/10/14 12:45:12;;;;;;;;;11.40;11.00;;;;;32.01;85.13;97797.22;6209263;28;96586;-63
2023/10/14 12:48:17;;;;;;;;;9.80;9.20;;;;;32.11;85.64;97796.50;6210242;28;96672;-63
2023/10/14 12:51:25;;;;;;;;;13.00;12.00;;;;;32.35;84.11;97793.06;6209521;28;96682;-62
2023/10/14 12:54:34;;;;;;;;;12.00;10.60;;;;;32.39;84.40;97801.44;6209012;28;97576;-63
2023/10/14 12:57:37;;;;;;;;;10.50;10.00;;;;;32.23;83.73;97793.38;6188795;28;96752;-62
2023/10/14 13:00:42;;;;;;;;;11.40;11.00;;;;;31.92;84.29;97782.81;6214084;28;96597;-62
2023/10/14 13:03:52;;;;;;;;;9.75;9.00;;;;;31.53;86.60;97788.88;6205624;28;96421;-63
2023/10/14 13:06:57;;;;;;;;;10.00;9.00;;;;;31.66;86.44;97784.66;6226466;28;96502;-62
2023/10/14 13:10:05;;;;;;;;;10.20;10.20;;;;;31.93;83.91;97782.44;6219635;28;97109;-62
2023/10/14 13:13:08;;;;;;;;;8.40;7.80;;;;;31.99;85.21;97786.47;6188720;28;96694;-62
2023/10/14 13:16:11;;;;;;;;;8.75;7.75;;;;;31.83;86.24;97781.19;6197495;28;96548;-62
2023/10/14 13:19:16;;;;;;;;;11.75;10.00;;;;;31.55;88.73;97783.75;6191255;28;96260;-62
2023/10/14 13:22:23;;;;;;;;;10.00;10.00;;;;;31.24;89.83;97792.63;6197598;28;96371;-62
2023/10/14 13:25:27;;;;;;;;;11.50;10.50;;;;;30.83;91.30;97786.25;6213845;28;96370;-61
2023/10/14 13:28:32;;;;;;;;;10.00;9.00;;;;;30.43;92.93;97804.44;6219499;28;96630;-62
2023/10/14 13:31:39;;;;;;;;;12.50;10.75;;;;;30.15;94.27;97809.63;6214689;28;96932;-62
2023/10/14 13:34:45;;;;;;;;;8.00;7.00;;;;;29.73;95.11;97808.94;6191719;28;98482;-61
2023/10/14 13:37:49;;;;;;;;;9.00;8.00;;;;;29.50;97.28;97818.13;6210282;28;96856;-62
2023/10/14 13:40:53;;;;;;;;;10.75;9.75;;;;;29.40;97.50;97813.19;6214974;28;96417;-62
2023/10/14 13:43:56;;;;;;;;;10.00;9.60;;;;;29.25;99.94;97819.66;6207204;28;96869;-62
2023/10/14 13:47:04;;;;;;;;;8.60;8.00;;;;;29.07;99.56;97808.25;6212660;28;96264;-62
2023/10/14 13:50:11;;;;;;;;;10.20;9.20;;;;;28.91;99.97;97818.63;6203538;28;96606;-62
2023/10/14 13:53:18;;;;;;;;;10.60;9.40;;;;;28.93;100.00;97824.59;6208797;28;97015;-62
2023/10/14 13:56:21;;;;;;;;;10.20;9.80;;;;;28.89;100.00;97825.72;6225723;28;96763;-61
2023/10/14 13:59:24;;;;;;;;;11.20;10.80;;;;;28.71;100.00;97819.81;6225006;28;96318;-62
2023/10/14 14:02:29;;;;;;;;;13.00;12.00;;;;;28.59;100.00;97822.75;6220242;28;97545;-62
2023/10/14 14:05:38;;;;;;;;;11.00;10.00;;;;;28.47;100.00;97820.09;6228771;28;96959;-62
2023/10/14 14:08:41;;;;;;;;;11.00;10.00;;;;;28.29;100.00;97823.31;6220716;28;96908;-61
2023/10/14 14:11:44;;;;;;;;;11.60;10.60;;;;;28.10;100.00;97828.78;6196656;28;96458;-61
2023/10/14 14:14:47;;;;;;;;;12.00;11.00;;;;;27.98;100.00;97812.28;6206789;28;97286;-61
2023/10/14 14:17:50;;;;;;;;;13.00;12.00;;;;;27.91;100.00;97823.19;6235836;27;97880;-61
2023/10/14 14:20:55;;;;;;;;;10.25;10.25;;;;;27.79;100.00;97820.56;6222611;28;96509;-61
2023/10/14 14:23:58;;;;;;;;;11.33;10.00;;;;;27.67;100.00;97813.16;6222379;28;96393;-62
2023/10/14 14:27:02;;;;;;;;;11.00;10.00;;;;;27.46;100.00;97810.66;6204097;28;97722;-61
2023/10/14 14:30:07;;;;;;;;;12.00;12.00;;;;;27.43;100.00;97816.09;6224420;28;96685;-61